Time;durP1;ratioP1;P1;durP2;ratioP2;P2;SDS_P1;SDS_P2;PMS_P1;PMS_P2;Temp;Humidity;BMP_temperature;BMP_pressure;BME280_temperature;BME280_humidity;BME280_pressure;Samples;Min_cycle;Max_cycle;Signal;HPM_P1;HPM_P2
2021/08/07 00:01:36;;;;;;;7.60;4.75;;;;;;;21.11;69.98;99537.11;1740884;81;21102;-67
2021/08/07 00:04:03;;;;;;;8.98;5.17;;;;;;;21.16;69.81;99542.64;1735191;81;21114;-69
2021/08/07 00:06:29;;;;;;;7.65;5.33;;;;;;;21.15;69.65;99539.68;1734269;82;21124;-68
2021/08/07 00:08:56;;;;;;;8.58;5.33;;;;;;;21.15;69.59;99537.00;1733818;81;21024;-68
2021/08/07 00:11:23;;;;;;;8.20;5.87;;;;;;;21.13;69.59;99542.56;1707564;82;21032;-68
2021/08/07 00:13:49;;;;;;;9.20;5.60;;;;;;;21.09;69.60;99548.54;1734814;81;21027;-68
2021/08/07 00:16:15;;;;;;;10.50;5.80;;;;;;;21.03;69.69;99547.55;1735814;81;21060;-67
2021/08/07 00:18:43;;;;;;;9.53;5.50;;;;;;;20.96;69.95;99543.56;1732544;81;22242;-67
2021/08/07 00:21:10;;;;;;;6.95;4.65;;;;;;;20.95;69.98;99540.56;1737951;81;21036;-67
2021/08/07 00:23:36;;;;;;;8.35;5.22;;;;;;;20.97;69.96;99544.37;1733985;81;21083;-67
2021/08/07 00:26:02;;;;;;;7.83;4.85;;;;;;;21.02;69.93;99555.25;1730118;81;21031;-71
2021/08/07 00:28:29;;;;;;;10.13;5.20;;;;;;;20.98;69.83;99548.70;1732480;81;21033;-68
2021/08/07 00:30:55;;;;;;;10.40;5.55;;;;;;;20.89;70.04;99548.61;1738056;81;21557;-69
2021/08/07 00:33:22;;;;;;;9.95;5.05;;;;;;;20.83;70.27;99552.96;1739455;81;21058;-68
2021/08/07 00:35:49;;;;;;;8.78;5.20;;;;;;;20.77;70.40;99558.61;1707708;81;21161;-68
2021/08/07 00:38:15;;;;;;;9.58;5.40;;;;;;;20.74;70.55;99561.70;1730163;82;21051;-69
2021/08/07 00:40:42;;;;;;;8.85;5.20;;;;;;;20.77;70.62;99559.95;1733545;81;21054;-68
2021/08/07 00:43:10;;;;;;;7.97;5.25;;;;;;;20.78;70.61;99565.61;1732023;81;21673;-68
2021/08/07 00:45:39;;;;;;;9.15;5.55;;;;;;;20.76;70.52;99568.17;1735567;81;21048;-67
2021/08/07 00:48:07;;;;;;;9.45;5.47;;;;;;;20.74;70.63;99568.91;1743511;81;21046;-68
2021/08/07 00:50:36;;;;;;;7.83;5.67;;;;;;;20.66;70.75;99568.63;1735113;81;21047;-70
2021/08/07 00:53:06;;;;;;;9.43;6.08;;;;;;;20.60;71.04;99571.58;1699996;82;21109;-68
2021/08/07 00:55:34;;;;;;;9.20;6.60;;;;;;;20.58;71.09;99577.65;1733299;81;21063;-68
2021/08/07 00:58:01;;;;;;;9.58;5.87;;;;;;;20.61;71.11;99579.09;1712147;82;22355;-68
2021/08/07 01:00:28;;;;;;;8.38;5.22;;;;;;;20.69;70.95;99584.75;1652422;85;21086;-67
2021/08/07 01:03:12;;;;;;;8.78;5.58;;;;;;;20.71;70.88;99581.34;1678050;84;21043;-67
2021/08/07 01:05:50;;;;;;;9.90;5.17;;;;;;;20.77;70.81;99591.22;1680573;84;21078;-69
2021/08/07 01:08:20;;;;;;;8.95;5.05;;;;;;;20.75;70.81;99584.74;1677182;84;21772;-71
2021/08/07 01:11:25;;;;;;;9.80;5.50;;;;;;;20.72;70.92;99589.69;1674930;84;21703;-68
2021/08/07 01:13:56;;;;;;;8.98;5.60;;;;;;;20.68;70.94;99595.13;1677848;84;21086;-68
2021/08/07 01:16:34;;;;;;;8.80;5.53;;;;;;;20.62;71.04;99585.26;1630283;86;21123;-69
2021/08/07 01:19:06;;;;;;;10.38;5.58;;;;;;;20.60;71.06;99587.61;1657627;86;21086;-68
2021/08/07 01:21:37;;;;;;;9.08;5.62;;;;;;;20.62;71.07;99587.93;1611496;85;21177;-68
2021/08/07 01:24:19;;;;;;;7.87;5.42;;;;;;;20.59;71.24;99587.81;1654631;86;22281;-67
2021/08/07 01:27:17;;;;;;;8.85;5.30;;;;;;;20.57;71.38;99585.88;1653786;84;21098;-68
2021/08/07 01:29:45;;;;;;;7.15;5.08;;;;;;;20.49;71.40;99592.23;1624373;86;21090;-66
2021/08/07 01:32:11;;;;;;;8.95;5.08;;;;;;;20.39;71.50;99590.50;1633273;86;21318;-66
2021/08/07 01:34:40;;;;;;;8.63;5.42;;;;;;;20.35;71.63;99589.28;1688239;83;21094;-66
2021/08/07 01:37:09;;;;;;;8.18;5.83;;;;;;;20.31;71.77;99587.55;1687985;83;21083;-66
2021/08/07 01:39:45;;;;;;;9.25;6.70;;;;;;;20.28;71.95;99586.61;1690363;83;21513;-66
2021/08/07 01:42:12;;;;;;;9.53;6.50;;;;;;;20.24;72.18;99588.06;1686532;83;21106;-66
2021/08/07 01:44:39;;;;;;;7.85;5.30;;;;;;;20.18;72.40;99588.87;1687820;84;21138;-65
2021/08/07 01:47:45;;;;;;;8.60;5.47;;;;;;;20.09;72.59;99592.27;1691175;83;21233;-66
2021/08/07 01:50:30;;;;;;;8.28;5.55;;;;;;;20.09;72.69;99595.43;1688729;84;22160;-67
2021/08/07 01:53:02;;;;;;;9.48;5.67;;;;;;;20.10;72.54;99604.58;1686600;83;21000;-66
2021/08/07 01:55:39;;;;;;;10.05;5.50;;;;;;;20.06;72.59;99603.88;1689231;83;21580;-67
2021/08/07 01:58:14;;;;;;;9.23;5.90;;;;;;;20.01;72.74;99609.82;1665033;83;21537;-66
2021/08/07 02:00:44;;;;;;;10.15;5.80;;;;;;;19.98;72.70;99601.69;1681775;82;21148;-67
2021/08/07 02:03:13;;;;;;;9.30;5.85;;;;;;;19.92;72.67;99608.35;1707885;82;21078;-68
2021/08/07 02:05:39;;;;;;;7.60;5.33;;;;;;;19.82;72.86;99608.25;1706809;82;21063;-66
2021/08/07 02:08:08;;;;;;;8.53;5.00;;;;;;;19.78;73.10;99612.33;1684245;82;21110;-66
2021/08/07 02:10:44;;;;;;;10.03;5.40;;;;;;;19.81;73.09;99619.94;1707010;82;21604;-66
2021/08/07 02:13:16;;;;;;;6.92;4.62;;;;;;;19.80;73.19;99621.47;1703515;82;22265;-71
2021/08/07 02:15:48;;;;;;;8.35;5.40;;;;;;;19.78;73.17;99619.00;1706346;82;21636;-69
2021/08/07 02:18:20;;;;;;;9.30;6.15;;;;;;;19.77;73.31;99628.05;1710068;82;21004;-66
2021/08/07 02:20:49;;;;;;;8.53;5.28;;;;;;;19.76;73.34;99630.92;1707907;82;21485;-66
2021/08/07 02:23:16;;;;;;;6.78;4.67;;;;;;;19.74;73.42;99636.95;1706371;82;22104;-68
2021/08/07 02:25:44;;;;;;;8.53;4.97;;;;;;;19.72;73.13;99638.48;1703289;82;21149;-66
2021/08/07 02:28:13;;;;;;;8.50;4.25;;;;;;;19.72;72.83;99645.64;1712490;82;21406;-66
2021/08/07 02:30:40;;;;;;;7.62;4.95;;;;;;;19.66;72.77;99640.61;1700353;82;21071;-66
2021/08/07 02:33:07;;;;;;;7.37;4.47;;;;;;;19.62;72.72;99639.38;1706632;82;21046;-65
2021/08/07 02:35:35;;;;;;;7.67;5.05;;;;;;;19.57;72.77;99640.45;1682387;82;21024;-66
2021/08/07 02:38:02;;;;;;;9.35;5.58;;;;;;;19.47;72.96;99637.66;1712232;82;21196;-67
2021/08/07 02:40:29;;;;;;;9.30;4.92;;;;;;;19.39;73.21;99649.02;1702626;82;21054;-67
2021/08/07 02:42:58;;;;;;;7.50;4.80;;;;;;;19.33;73.53;99645.80;1708704;82;21084;-68
2021/08/07 02:45:29;;;;;;;11.60;5.28;;;;;;;19.35;73.63;99655.76;1661964;83;21093;-71
2021/08/07 02:47:59;;;;;;;7.42;4.75;;;;;;;19.37;73.75;99660.41;1709170;82;21126;-68
2021/08/07 02:50:31;;;;;;;12.30;5.65;;;;;;;19.38;73.87;99666.03;1682689;82;21832;-67
2021/08/07 02:53:00;;;;;;;9.23;5.65;;;;;;;19.40;73.94;99665.33;1710544;82;21070;-69
2021/08/07 02:55:30;;;;;;;9.33;5.03;;;;;;;19.42;73.99;99667.31;1687820;83;21038;-66
2021/08/07 02:58:04;;;;;;;8.20;4.80;;;;;;;19.41;73.93;99674.98;1680966;83;21095;-66
2021/08/07 03:00:35;;;;;;;8.05;4.90;;;;;;;19.35;73.73;99673.09;1723604;81;21110;-65
2021/08/07 03:03:08;;;;;;;7.65;4.42;;;;;;;19.29;73.43;99676.05;1733185;80;21151;-66
2021/08/07 03:05:40;;;;;;;7.03;4.45;;;;;;;19.28;73.06;99681.06;1731229;82;21068;-67
2021/08/07 03:08:13;;;;;;;7.30;4.78;;;;;;;19.26;72.83;99689.26;1726497;80;21080;-67
2021/08/07 03:10:46;;;;;;;9.00;4.00;;;;;;;19.23;72.71;99691.50;1701321;83;21420;-67
2021/08/07 03:13:18;;;;;;;9.53;4.60;;;;;;;19.19;72.66;99699.07;1677770;84;21060;-68
2021/08/07 03:15:50;;;;;;;10.85;4.55;;;;;;;19.15;72.50;99700.50;1740301;80;21799;-67
2021/08/07 03:18:21;;;;;;;8.60;4.08;;;;;;;19.12;72.29;99703.03;1728055;81;21170;-66
2021/08/07 03:20:57;;;;;;;6.75;3.70;;;;;;;19.14;72.12;99701.50;1731995;80;21066;-71
2021/08/07 03:23:23;;;;;;;7.37;4.30;;;;;;;19.14;71.67;99696.17;1734462;80;21629;-68
2021/08/07 03:25:55;;;;;;;8.68;4.35;;;;;;;19.12;71.63;99704.36;1704543;82;21061;-66
2021/08/07 03:28:27;;;;;;;6.17;3.70;;;;;;;19.08;71.61;99702.27;1708401;82;21878;-70
2021/08/07 03:30:58;;;;;;;7.15;4.15;;;;;;;19.00;71.61;99701.93;1737025;80;21143;-67
2021/08/07 03:33:29;;;;;;;7.15;4.33;;;;;;;18.94;71.73;99702.70;1736812;80;21078;-66
2021/08/07 03:35:59;;;;;;;10.20;4.50;;;;;;;18.90;71.86;99701.45;1738274;82;21063;-71
2021/08/07 03:38:28;;;;;;;7.10;4.55;;;;;;;18.92;71.94;99706.89;1705637;80;21109;-67
2021/08/07 03:40:58;;;;;;;7.05;4.25;;;;;;;18.96;72.10;99705.98;1743499;80;22417;-67
2021/08/07 03:43:27;;;;;;;10.93;4.65;;;;;;;18.98;72.24;99710.64;1736010;80;21126;-67
2021/08/07 03:45:55;;;;;;;9.70;4.95;;;;;;;18.99;72.30;99714.94;1740104;81;21083;-71
2021/08/07 03:48:23;;;;;;;7.95;5.33;;;;;;;18.97;72.43;99717.50;1735821;81;21062;-69
2021/08/07 03:50:50;;;;;;;8.35;4.22;;;;;;;18.93;72.60;99719.21;1740443;80;22437;-68
2021/08/07 03:53:19;;;;;;;6.85;3.80;;;;;;;18.94;72.60;99716.03;1743705;80;21997;-69
2021/08/07 03:55:48;;;;;;;5.95;3.75;;;;;;;19.00;72.32;99711.27;1733905;80;21040;-68
2021/08/07 03:58:15;;;;;;;9.95;3.90;;;;;;;19.06;72.24;99717.16;1730032;80;21502;-67
2021/08/07 04:00:43;;;;;;;7.22;4.40;;;;;;;19.12;72.18;99715.03;1738315;80;21063;-67
2021/08/07 04:03:12;;;;;;;9.18;4.30;;;;;;;19.20;71.98;99721.22;1738502;80;21070;-71
2021/08/07 04:05:39;;;;;;;8.13;4.65;;;;;;;19.21;71.57;99715.70;1704729;83;21091;-68
2021/08/07 04:08:10;;;;;;;6.58;4.40;;;;;;;19.19;71.42;99723.59;1731539;81;22048;-67
2021/08/07 04:10:40;;;;;;;6.65;3.42;;;;;;;19.12;71.33;99716.36;1735981;80;21106;-67
2021/08/07 04:13:08;;;;;;;6.30;3.87;;;;;;;19.13;71.40;99721.17;1741084;80;21558;-68
2021/08/07 04:15:36;;;;;;;8.20;3.87;;;;;;;19.19;71.23;99720.92;1731534;82;21107;-67
2021/08/07 04:18:05;;;;;;;7.42;3.72;;;;;;;19.25;71.17;99722.82;1709193;82;21137;-65
2021/08/07 04:20:32;;;;;;;5.80;3.75;;;;;;;19.30;70.45;99724.39;1734077;80;22299;-67
2021/08/07 04:22:59;;;;;;;8.23;4.10;;;;;;;19.30;69.94;99725.72;1713932;82;21019;-70
2021/08/07 04:25:27;;;;;;;6.90;3.87;;;;;;;19.29;69.85;99726.73;1740316;80;21058;-68
2021/08/07 04:27:55;;;;;;;5.45;3.55;;;;;;;19.27;69.78;99731.45;1740571;80;21106;-66
2021/08/07 04:30:22;;;;;;;9.35;3.98;;;;;;;19.26;69.69;99734.59;1736730;80;21110;-67
2021/08/07 04:32:50;;;;;;;5.85;3.35;;;;;;;19.33;69.55;99727.16;1732844;80;21099;-69
2021/08/07 04:35:17;;;;;;;5.20;3.02;;;;;;;19.39;69.26;99739.72;1739487;80;21040;-67
2021/08/07 04:37:48;;;;;;;5.62;3.15;;;;;;;19.40;68.76;99746.20;1737022;80;21060;-66
2021/08/07 04:40:16;;;;;;;5.80;3.42;;;;;;;19.35;68.49;99745.12;1739451;80;20989;-65
2021/08/07 04:42:44;;;;;;;6.45;3.30;;;;;;;19.29;68.84;99740.07;1671327;83;21749;-72
2021/08/07 04:45:12;;;;;;;5.50;3.42;;;;;;;19.31;68.66;99736.69;1673687;83;21111;-67
2021/08/07 04:48:01;;;;;;;5.90;2.67;;;;;;;19.40;67.86;99738.69;1736887;80;21097;-66
2021/08/07 04:50:32;;;;;;;6.95;3.15;;;;;;;19.48;66.95;99736.70;1735841;80;21094;-67
2021/08/07 04:53:03;;;;;;;5.85;3.33;;;;;;;19.51;66.75;99745.33;1737100;80;21114;-67
2021/08/07 04:55:30;;;;;;;6.53;2.80;;;;;;;19.51;66.59;99746.66;1740754;80;21856;-72
2021/08/07 04:57:58;;;;;;;5.20;2.70;;;;;;;19.48;66.80;99743.38;1731390;80;21095;-71
2021/08/07 05:00:25;;;;;;;5.87;2.87;;;;;;;19.45;65.66;99748.26;1740716;80;21686;-69
2021/08/07 05:02:52;;;;;;;5.28;2.52;;;;;;;19.42;65.72;99752.67;1730794;81;21059;-68
2021/08/07 05:05:20;;;;;;;5.40;2.55;;;;;;;19.47;65.74;99748.91;1727190;81;21032;-66
2021/08/07 05:07:50;;;;;;;5.42;2.83;;;;;;;19.48;64.97;99739.86;1732833;81;21045;-67
2021/08/07 05:10:19;;;;;;;5.42;3.35;;;;;;;19.50;65.18;99735.14;1732910;80;21414;-67
2021/08/07 05:12:46;;;;;;;5.55;3.25;;;;;;;19.53;64.18;99727.27;1730997;81;20968;-67
2021/08/07 05:15:14;;;;;;;5.58;3.00;;;;;;;19.54;64.01;99735.61;1731258;81;22197;-68
2021/08/07 05:17:43;;;;;;;9.58;2.72;;;;;;;19.53;63.96;99736.61;1731169;81;21880;-68
2021/08/07 05:20:11;;;;;;;4.90;2.42;;;;;;;19.52;64.02;99737.13;1736290;81;21111;-69
2021/08/07 05:22:38;;;;;;;5.28;2.62;;;;;;;19.60;64.11;99744.13;1730481;81;21082;-68
2021/08/07 05:25:08;;;;;;;5.85;2.42;;;;;;;19.67;63.13;99736.48;1728665;81;21684;-71
2021/08/07 05:27:35;;;;;;;4.75;2.47;;;;;;;19.71;62.85;99742.77;1726299;81;21544;-70
2021/08/07 05:30:06;;;;;;;6.85;2.62;;;;;;;19.70;62.45;99748.59;1728052;81;21645;-68
2021/08/07 05:32:34;;;;;;;4.33;2.40;;;;;;;19.71;62.50;99752.11;1733367;81;22535;-68
2021/08/07 05:35:03;;;;;;;4.58;2.47;;;;;;;19.70;62.52;99749.93;1734512;81;21071;-69
2021/08/07 05:37:31;;;;;;;4.95;2.62;;;;;;;19.72;61.93;99761.25;1733667;81;21068;-71
2021/08/07 05:40:00;;;;;;;5.60;2.42;;;;;;;19.77;62.61;99759.34;1739282;81;20976;-67
2021/08/07 05:42:30;;;;;;;4.55;1.82;;;;;;;19.84;62.70;99755.69;1731823;81;21059;-68
2021/08/07 05:45:00;;;;;;;4.10;2.40;;;;;;;19.93;62.03;99760.86;1732795;80;21183;-68
2021/08/07 05:47:29;;;;;;;4.37;2.33;;;;;;;20.00;62.04;99752.35;1669348;84;21103;-68
2021/08/07 05:49:59;;;;;;;4.50;2.37;;;;;;;20.03;61.98;99747.95;1705690;82;21003;-69
2021/08/07 05:52:28;;;;;;;4.33;2.20;;;;;;;20.09;62.30;99751.17;1727851;81;21076;-71
2021/08/07 05:54:58;;;;;;;4.80;2.40;;;;;;;20.13;62.13;99753.73;1671464;83;21040;-69
2021/08/07 05:57:28;;;;;;;5.60;2.75;;;;;;;20.18;62.30;99753.95;1691094;82;21144;-68
2021/08/07 05:59:58;;;;;;;6.90;2.15;;;;;;;20.25;62.48;99763.84;1728199;81;21058;-71
2021/08/07 06:02:30;;;;;;;5.05;2.20;;;;;;;20.35;61.08;99773.11;1729817;82;21047;-68
2021/08/07 06:04:57;;;;;;;3.83;1.75;;;;;;;20.47;60.74;99761.84;1731872;80;21094;-67
2021/08/07 06:07:25;;;;;;;5.72;2.42;;;;;;;20.58;59.83;99759.91;1732757;80;21000;-68
2021/08/07 06:09:56;;;;;;;4.00;2.25;;;;;;;20.62;59.83;99771.83;1736838;81;21126;-66
2021/08/07 06:12:25;;;;;;;3.98;1.92;;;;;;;20.61;59.02;99780.89;1737154;80;21067;-69
2021/08/07 06:14:54;;;;;;;4.25;1.90;;;;;;;20.56;58.40;99786.84;1733439;80;21385;-66
2021/08/07 06:17:22;;;;;;;4.03;1.80;;;;;;;20.54;58.70;99769.34;1709165;82;21091;-68
2021/08/07 06:19:52;;;;;;;4.58;2.15;;;;;;;20.51;59.22;99763.91;1736599;82;21077;-65
2021/08/07 06:22:19;;;;;;;6.97;2.20;;;;;;;20.52;59.66;99764.20;1735295;82;21138;-65
2021/08/07 06:24:45;;;;;;;4.78;2.08;;;;;;;20.56;59.79;99754.77;1733696;80;21077;-66
2021/08/07 06:27:12;;;;;;;5.20;1.85;;;;;;;20.63;59.15;99770.00;1733771;80;21015;-65
2021/08/07 06:29:40;;;;;;;3.95;1.77;;;;;;;20.68;58.43;99774.22;1739591;80;21073;-66
2021/08/07 06:32:08;;;;;;;4.75;2.05;;;;;;;20.73;57.22;99773.13;1734674;80;21067;-66
2021/08/07 06:34:37;;;;;;;4.78;2.25;;;;;;;20.73;57.79;99764.58;1732824;80;21164;-67
2021/08/07 06:37:04;;;;;;;5.10;2.20;;;;;;;20.75;58.02;99753.69;1738582;80;20960;-71
2021/08/07 06:39:32;;;;;;;4.10;1.90;;;;;;;20.80;58.69;99763.77;1731340;80;21439;-71
2021/08/07 06:41:58;;;;;;;3.80;1.80;;;;;;;20.83;57.79;99772.70;1734075;80;21110;-70
2021/08/07 06:44:27;;;;;;;6.28;2.17;;;;;;;20.80;57.97;99763.77;1737850;80;21038;-66
2021/08/07 06:46:55;;;;;;;8.85;2.20;;;;;;;20.79;58.17;99769.61;1733221;80;21169;-67
2021/08/07 06:49:23;;;;;;;4.78;2.37;;;;;;;20.78;58.78;99766.65;1733160;80;21210;-74
2021/08/07 06:51:50;;;;;;;9.20;2.58;;;;;;;20.77;58.96;99763.66;1728620;80;21045;-67
2021/08/07 06:54:17;;;;;;;5.75;2.50;;;;;;;20.84;59.64;99767.14;1727022;80;21091;-70
2021/08/07 06:56:48;;;;;;;5.45;2.62;;;;;;;20.99;59.00;99758.11;1731904;80;21069;-72
2021/08/07 06:59:12;;;;;;;4.78;2.20;;;;;;;21.08;58.30;99772.41;1730546;80;21164;-66
2021/08/07 07:01:39;;;;;;;5.40;2.45;;;;;;;21.13;58.27;99772.61;1731430;80;21071;-66
2021/08/07 07:04:05;;;;;;;4.47;2.45;;;;;;;21.19;57.55;99772.29;1728360;81;21060;-67
2021/08/07 07:06:32;;;;;;;4.85;2.40;;;;;;;21.20;57.82;99783.31;1727533;81;22121;-67
2021/08/07 07:08:59;;;;;;;6.80;2.95;;;;;;;21.22;58.20;99779.09;1725195;81;21108;-67
2021/08/07 07:11:26;;;;;;;5.85;2.70;;;;;;;21.25;58.30;99781.33;1730069;82;21113;-71
2021/08/07 07:13:55;;;;;;;5.20;2.55;;;;;;;21.28;57.75;99782.25;1729125;81;21125;-70
2021/08/07 07:16:23;;;;;;;5.28;3.15;;;;;;;21.30;57.66;99782.37;1731353;82;21342;-73
2021/08/07 07:18:50;;;;;;;5.00;2.90;;;;;;;21.31;57.62;99788.01;1730068;81;21092;-70
2021/08/07 07:21:17;;;;;;;4.92;2.65;;;;;;;21.32;57.62;99794.20;1726687;82;21568;-67
2021/08/07 07:23:44;;;;;;;5.03;2.62;;;;;;;21.32;57.82;99799.03;1725641;82;21384;-66
2021/08/07 07:26:11;;;;;;;5.50;2.85;;;;;;;21.34;57.74;99796.96;1690555;83;22055;-66
2021/08/07 07:28:37;;;;;;;7.83;2.83;;;;;;;21.36;57.50;99800.77;1733249;81;21676;-67
2021/08/07 07:31:04;;;;;;;4.75;2.30;;;;;;;21.36;57.21;99818.17;1730346;81;21102;-67
2021/08/07 07:33:31;;;;;;;6.75;2.37;;;;;;;21.32;54.55;99798.22;1732599;81;21165;-69
2021/08/07 07:35:58;;;;;;;4.47;2.22;;;;;;;21.33;55.13;99807.38;1728197;81;21894;-70
2021/08/07 07:38:25;;;;;;;3.67;1.67;;;;;;;21.31;54.63;99798.71;1725849;81;21764;-70
2021/08/07 07:40:54;;;;;;;6.65;2.58;;;;;;;21.29;51.95;99814.68;1719118;81;21096;-67
2021/08/07 07:43:22;;;;;;;6.00;2.40;;;;;;;21.27;52.66;99808.72;1728865;81;21063;-69
2021/08/07 07:45:50;;;;;;;4.17;1.80;;;;;;;21.25;52.83;99804.91;1728984;81;21576;-70
2021/08/07 07:48:16;;;;;;;4.85;2.08;;;;;;;21.27;52.64;99809.53;1724032;81;21046;-69
2021/08/07 07:50:44;;;;;;;7.10;1.82;;;;;;;21.29;51.60;99813.34;1726761;81;21051;-70
2021/08/07 07:53:13;;;;;;;5.42;2.10;;;;;;;21.34;52.42;99822.91;1727723;81;21090;-67
2021/08/07 07:55:41;;;;;;;5.37;2.72;;;;;;;21.39;52.48;99815.08;1725756;81;21102;-76
2021/08/07 07:58:08;;;;;;;5.10;2.37;;;;;;;21.43;52.80;99808.80;1729079;81;21064;-75
2021/08/07 08:00:36;;;;;;;5.12;2.42;;;;;;;21.45;52.40;99822.78;1726784;81;21130;-68
2021/08/07 08:03:02;;;;;;;6.65;2.20;;;;;;;21.44;53.12;99820.63;1736471;80;21043;-68
2021/08/07 08:05:31;;;;;;;4.65;2.70;;;;;;;21.46;52.58;99816.41;1736317;81;21105;-72
2021/08/07 08:08:00;;;;;;;4.00;2.08;;;;;;;21.49;51.88;99814.17;1738499;80;21057;-69
2021/08/07 08:10:27;;;;;;;3.90;1.98;;;;;;;21.56;52.21;99818.17;1711205;81;21739;-66
2021/08/07 08:12:55;;;;;;;5.28;2.75;;;;;;;21.62;50.77;99822.70;1735618;80;21083;-70
2021/08/07 08:15:22;;;;;;;3.90;2.12;;;;;;;21.68;51.21;99825.86;1734259;81;22269;-69
2021/08/07 08:17:48;;;;;;;4.87;2.65;;;;;;;21.75;51.08;99824.51;1663485;83;21118;-68
2021/08/07 08:20:15;;;;;;;5.25;2.52;;;;;;;21.78;51.15;99818.74;1734447;80;21119;-70
2021/08/07 08:22:42;;;;;;;6.28;2.20;;;;;;;21.82;51.58;99816.45;1738659;81;21098;-70
2021/08/07 08:25:10;;;;;;;4.90;2.00;;;;;;;21.88;50.61;99821.80;1739862;81;22528;-69
2021/08/07 08:27:38;;;;;;;4.78;2.60;;;;;;;21.91;50.53;99828.60;1743852;80;21447;-69
2021/08/07 08:30:06;;;;;;;5.47;2.45;;;;;;;21.93;50.75;99823.85;1740040;81;21069;-68
2021/08/07 08:32:34;;;;;;;4.37;2.02;;;;;;;21.98;50.76;99804.47;1743328;80;21058;-72
2021/08/07 08:35:01;;;;;;;5.08;2.75;;;;;;;22.05;51.22;99802.58;1734721;81;21071;-67
2021/08/07 08:37:30;;;;;;;4.85;2.40;;;;;;;22.15;51.44;99814.19;1739138;80;21148;-73
2021/08/07 08:39:58;;;;;;;6.30;2.37;;;;;;;22.20;51.10;99809.83;1736487;80;21490;-73
2021/08/07 08:42:25;;;;;;;4.60;2.30;;;;;;;22.25;51.67;99805.98;1739982;80;21034;-68
2021/08/07 08:44:53;;;;;;;5.70;2.20;;;;;;;22.35;50.23;99806.91;1735779;81;21128;-69
2021/08/07 08:47:20;;;;;;;5.03;2.50;;;;;;;22.37;50.39;99810.19;1739570;80;21109;-68
2021/08/07 08:49:47;;;;;;;3.70;1.80;;;;;;;22.41;49.75;99826.16;1739244;80;23361;-70
2021/08/07 08:52:14;;;;;;;4.83;2.25;;;;;;;22.41;49.31;99822.14;1717169;80;21118;-70
2021/08/07 08:54:43;;;;;;;4.20;1.82;;;;;;;22.38;48.89;99821.22;1734904;80;21102;-73
2021/08/07 08:57:09;;;;;;;3.85;1.80;;;;;;;22.39;49.87;99817.52;1742086;80;21087;-70
2021/08/07 08:59:38;;;;;;;3.58;1.72;;;;;;;22.47;50.35;99821.80;1737729;80;21098;-72
2021/08/07 09:02:05;;;;;;;3.60;1.67;;;;;;;22.57;50.24;99812.76;1735752;80;21466;-71
2021/08/07 09:04:33;;;;;;;4.20;1.72;;;;;;;22.69;49.77;99806.19;1737573;80;21660;-65
2021/08/07 09:07:00;;;;;;;3.77;1.72;;;;;;;22.80;49.67;99808.71;1738549;80;21098;-72
2021/08/07 09:09:38;;;;;;;3.30;1.47;;;;;;;22.90;48.83;99815.75;1708493;82;21110;-71
2021/08/07 09:12:07;;;;;;;4.78;1.50;;;;;;;22.98;49.16;99804.75;1736119;80;21078;-69
2021/08/07 09:14:42;;;;;;;3.95;1.77;;;;;;;23.05;46.68;99816.78;1705306;80;21751;-73
2021/08/07 09:17:17;;;;;;;3.60;1.42;;;;;;;23.08;46.78;99825.77;1735808;80;21651;-74
2021/08/07 09:19:50;;;;;;;3.05;1.25;;;;;;;23.06;47.20;99819.77;1734175;80;21059;-68
2021/08/07 09:22:26;;;;;;;4.92;1.35;;;;;;;23.06;46.93;99815.75;1740242;80;22338;-67
2021/08/07 09:25:12;;;;;;;3.33;1.40;;;;;;;23.04;47.15;99817.80;1707115;82;21123;-72
2021/08/07 09:27:43;;;;;;;3.60;1.50;;;;;;;23.04;46.20;99813.78;1735455;80;21136;-71
2021/08/07 09:30:24;;;;;;;3.25;1.25;;;;;;;23.05;46.77;99813.25;1740282;80;21051;-72
2021/08/07 09:32:57;;;;;;;3.30;1.20;;;;;;;23.05;47.09;99811.91;1739318;80;21064;-71
2021/08/07 09:35:26;;;;;;;3.12;1.50;;;;;;;23.07;46.11;99818.75;1734980;81;21118;-73
2021/08/07 09:38:12;;;;;;;3.40;1.30;;;;;;;23.07;46.06;99824.11;1734426;80;21393;-73
2021/08/07 09:41:03;;;;;;;2.92;1.10;;;;;;;23.09;46.51;99819.88;1736493;80;21152;-71
2021/08/07 09:43:48;;;;;;;2.65;1.22;;;;;;;23.13;47.06;99812.52;1735011;80;21118;-73
2021/08/07 09:46:23;;;;;;;2.65;1.12;;;;;;;23.22;46.07;99814.89;1730968;80;21571;-69
2021/08/07 09:48:56;;;;;;;2.80;1.20;;;;;;;23.30;46.35;99830.72;1735689;80;21015;-72
2021/08/07 09:51:30;;;;;;;4.62;1.35;;;;;;;23.37;46.28;99828.30;1735799;80;21102;-69
2021/08/07 09:54:19;;;;;;;2.83;0.93;;;;;;;23.43;46.52;99830.61;1741301;80;21974;-68
2021/08/07 09:56:53;;;;;;;3.47;1.30;;;;;;;23.46;45.37;99846.28;1732129;80;21043;-68
2021/08/07 09:59:26;;;;;;;3.20;1.10;;;;;;;23.45;45.50;99845.16;1735780;80;21584;-74
2021/08/07 10:01:56;;;;;;;2.70;1.10;;;;;;;23.43;44.78;99848.06;1732715;81;21103;-72
2021/08/07 10:04:25;;;;;;;2.20;0.90;;;;;;;23.41;45.47;99858.73;1708254;82;21046;-70
2021/08/07 10:07:08;;;;;;;3.10;1.17;;;;;;;23.44;45.57;99850.24;1711229;82;21562;-73
2021/08/07 10:09:38;;;;;;;2.58;1.10;;;;;;;23.53;44.92;99847.03;1706630;82;21012;-68
2021/08/07 10:12:11;;;;;;;2.65;1.10;;;;;;;23.61;44.63;99870.63;1707355;82;21123;-70
2021/08/07 10:14:41;;;;;;;3.72;1.07;;;;;;;23.68;44.90;99857.95;1705279;82;21047;-75
2021/08/07 10:17:10;;;;;;;2.05;0.90;;;;;;;23.78;44.51;99862.30;1710699;82;21090;-69
2021/08/07 10:19:38;;;;;;;4.85;1.10;;;;;;;23.96;44.48;99858.02;1679520;82;22932;-69
2021/08/07 10:22:09;;;;;;;2.37;0.70;;;;;;;24.13;43.38;99864.43;1710842;82;21071;-72
2021/08/07 10:24:41;;;;;;;2.17;0.72;;;;;;;24.25;43.29;99872.03;1706296;82;21009;-75
2021/08/07 10:27:08;;;;;;;2.27;0.82;;;;;;;24.30;43.31;99857.38;1714175;82;21495;-79
2021/08/07 10:29:42;;;;;;;4.33;1.20;;;;;;;24.40;43.83;99855.51;1713440;82;21066;-77
2021/08/07 10:32:10;;;;;;;2.10;0.90;;;;;;;24.53;43.53;99862.59;1715039;82;21059;-77
2021/08/07 10:34:38;;;;;;;3.05;1.00;;;;;;;24.65;42.99;99859.44;1710854;82;21018;-72
2021/08/07 10:37:05;;;;;;;3.22;1.02;;;;;;;24.73;41.79;99862.35;1712137;82;21100;-75
2021/08/07 10:39:33;;;;;;;2.52;0.85;;;;;;;24.78;42.13;99857.60;1715191;82;21094;-73
2021/08/07 10:42:04;;;;;;;3.72;1.20;;;;;;;24.85;42.02;99864.54;1707483;82;21135;-70
2021/08/07 10:44:32;;;;;;;2.22;0.70;;;;;;;24.88;41.64;99868.66;1712555;82;21055;-69
2021/08/07 10:46:59;;;;;;;2.00;0.80;;;;;;;24.85;41.65;99872.61;1711426;82;21549;-68
2021/08/07 10:49:38;;;;;;;2.90;0.95;;;;;;;24.85;41.11;99870.45;1710820;82;22526;-69
2021/08/07 10:52:29;;;;;;;2.55;0.82;;;;;;;24.92;41.23;99871.17;1713835;82;21326;-69
2021/08/07 10:54:56;;;;;;;2.47;0.75;;;;;;;24.94;41.93;99869.59;1659946;83;21057;-68
2021/08/07 10:57:41;;;;;;;3.25;0.93;;;;;;;24.95;42.19;99880.13;1651326;85;21239;-70
2021/08/07 11:00:24;;;;;;;4.27;0.80;;;;;;;24.93;42.43;99880.89;1650633;85;21361;-71
2021/08/07 11:03:11;;;;;;;2.75;0.82;;;;;;;24.93;41.15;99884.94;1652650;85;21093;-68
2021/08/07 11:05:51;;;;;;;2.22;0.70;;;;;;;24.92;41.95;99888.66;1624747;86;21052;-68
2021/08/07 11:08:19;;;;;;;2.50;0.93;;;;;;;24.98;41.84;99893.64;1648588;85;21568;-71
2021/08/07 11:10:46;;;;;;;2.35;0.80;;;;;;;25.04;42.71;99887.34;1649610;85;21158;-68
2021/08/07 11:13:26;;;;;;;4.33;0.60;;;;;;;25.18;41.98;99890.65;1641864;85;21108;-74
2021/08/07 11:18:24;;;;;;;3.90;1.52;;;;;;;25.47;41.46;99890.83;1798516;78;22733;-58
2021/08/07 11:20:51;;;;;;;2.80;1.10;;;;;;;25.38;41.24;99895.21;1770877;79;21125;-58
2021/08/07 11:23:18;;;;;;;3.02;1.30;;;;;;;25.26;41.20;99890.34;1769696;79;21039;-58
2021/08/07 11:25:55;;;;;;;2.58;0.95;;;;;;;25.19;41.74;99890.42;1767033;78;21094;-59
2021/08/07 11:28:21;;;;;;;;;;;;;;;25.14;42.01;99884.91;1775651;78;20990;-58
2021/08/07 11:31:10;;;;;;;5.65;3.02;;;;;;;25.15;42.41;99887.06;1775783;78;20175;-60
2021/08/07 11:33:37;;;;;;;4.00;1.20;;;;;;;25.17;40.75;99889.03;1768853;78;21042;-58
2021/08/07 11:36:04;;;;;;;4.95;0.78;;;;;;;25.19;40.33;99886.92;1769841;78;21136;-59
2021/08/07 11:38:31;;;;;;;6.03;1.40;;;;;;;25.14;40.79;99886.80;1766823;78;21064;-59
2021/08/07 11:41:05;;;;;;;3.40;1.20;;;;;;;25.15;41.38;99888.41;1772795;79;20991;-58
2021/08/07 11:43:43;;;;;;;3.77;1.35;;;;;;;25.20;41.22;99888.54;1767786;78;21180;-62
2021/08/07 11:46:12;;;;;;;7.00;1.02;;;;;;;25.25;40.85;99874.39;1716701;81;21102;-64
2021/08/07 11:48:48;;;;;;;1.92;0.82;;;;;;;25.35;41.34;99870.12;1717040;81;21107;-59
2021/08/07 11:51:23;;;;;;;2.40;0.93;;;;;;;25.51;40.35;99873.98;1718355;81;21120;-59